sensor_id;sensor_type;location;lat;lon;timestamp;pressure;altitude;pressure_sealevel;temperature;humidity
45731;BME280;31440;48.584;13.460;2022-07-23T00:00:14;96881.06;;;21.29;79.35
45731;BME280;31440;48.584;13.460;2022-07-23T00:02:41;96877.13;;;21.12;80.34
45731;BME280;31440;48.584;13.460;2022-07-23T00:05:07;96874.94;;;21.29;78.61
45731;BME280;31440;48.584;13.460;2022-07-23T00:07:32;96883.06;;;20.94;83.06
45731;BME280;31440;48.584;13.460;2022-07-23T00:09:58;96886.75;;;21.25;81.74
45731;BME280;31440;48.584;13.460;2022-07-23T00:12:23;96889.41;;;20.46;88.94
45731;BME280;31440;48.584;13.460;2022-07-23T00:14:49;96888.22;;;20.50;92.54
45731;BME280;31440;48.584;13.460;2022-07-23T00:17:15;96884.13;;;21.02;86.80
45731;BME280;31440;48.584;13.460;2022-07-23T00:19:40;96881.97;;;20.63;90.52
45731;BME280;31440;48.584;13.460;2022-07-23T00:22:06;96878.16;;;20.56;92.18
45731;BME280;31440;48.584;13.460;2022-07-23T00:24:32;96873.81;;;20.99;88.35
45731;BME280;31440;48.584;13.460;2022-07-23T00:26:57;96869.38;;;20.66;91.64
45731;BME280;31440;48.584;13.460;2022-07-23T00:29:23;96872.13;;;20.98;88.00
45731;BME280;31440;48.584;13.460;2022-07-23T00:31:48;96872.13;;;20.65;91.32
45731;BME280;31440;48.584;13.460;2022-07-23T00:34:14;96876.59;;;20.53;92.00
45731;BME280;31440;48.584;13.460;2022-07-23T00:36:39;96869.72;;;20.62;92.04
45731;BME280;31440;48.584;13.460;2022-07-23T00:39:06;96859.28;;;20.27;95.28
45731;BME280;31440;48.584;13.460;2022-07-23T00:41:31;96853.41;;;20.68;90.85
45731;BME280;31440;48.584;13.460;2022-07-23T00:44:18;96841.41;;;20.64;89.96
45731;BME280;31440;48.584;13.460;2022-07-23T00:46:51;96845.84;;;20.30;93.11
45731;BME280;31440;48.584;13.460;2022-07-23T00:49:22;96839.03;;;20.38;90.53
45731;BME280;31440;48.584;13.460;2022-07-23T00:51:49;96836.50;;;20.37;91.98
45731;BME280;31440;48.584;13.460;2022-07-23T00:54:18;96821.97;;;20.31;92.38
45731;BME280;31440;48.584;13.460;2022-07-23T00:56:45;96822.34;;;20.38;88.35
45731;BME280;31440;48.584;13.460;2022-07-23T00:59:11;96798.69;;;20.14;90.85
45731;BME280;31440;48.584;13.460;2022-07-23T01:01:37;96812.38;;;20.30;86.90
45731;BME280;31440;48.584;13.460;2022-07-23T01:04:02;96817.84;;;20.05;94.73
45731;BME280;31440;48.584;13.460;2022-07-23T01:06:28;96822.06;;;20.41;91.25
45731;BME280;31440;48.584;13.460;2022-07-23T01:08:54;96802.31;;;19.67;95.77
45731;BME280;31440;48.584;13.460;2022-07-23T01:11:21;96805.69;;;19.91;94.78
45731;BME280;31440;48.584;13.460;2022-07-23T01:13:48;96793.41;;;19.57;91.95
45731;BME280;31440;48.584;13.460;2022-07-23T01:16:14;96800.19;;;19.83;90.59
45731;BME280;31440;48.584;13.460;2022-07-23T01:18:40;96794.47;;;20.23;86.68
45731;BME280;31440;48.584;13.460;2022-07-23T01:21:05;96796.91;;;19.68;89.59
45731;BME280;31440;48.584;13.460;2022-07-23T01:23:31;96784.56;;;19.69;89.99
45731;BME280;31440;48.584;13.460;2022-07-23T01:25:58;96781.34;;;19.65;91.74
45731;BME280;31440;48.584;13.460;2022-07-23T01:28:25;96771.53;;;19.90;89.86
45731;BME280;31440;48.584;13.460;2022-07-23T01:30:52;96768.94;;;20.01;89.86
45731;BME280;31440;48.584;13.460;2022-07-23T01:33:17;96755.69;;;19.78;91.33
45731;BME280;31440;48.584;13.460;2022-07-23T01:35:43;96760.75;;;19.81;92.56
45731;BME280;31440;48.584;13.460;2022-07-23T01:38:11;96758.94;;;19.82;92.85
45731;BME280;31440;48.584;13.460;2022-07-23T01:40:38;96769.16;;;20.09;90.77
45731;BME280;31440;48.584;13.460;2022-07-23T01:43:04;96765.91;;;20.28;89.14
45731;BME280;31440;48.584;13.460;2022-07-23T01:45:31;96758.72;;;20.07;90.87
45731;BME280;31440;48.584;13.460;2022-07-23T01:47:57;96750.19;;;19.93;91.72
45731;BME280;31440;48.584;13.460;2022-07-23T01:50:23;96757.53;;;20.11;90.11
45731;BME280;31440;48.584;13.460;2022-07-23T01:53:06;96749.34;;;19.81;92.27
45731;BME280;31440;48.584;13.460;2022-07-23T01:55:35;96750.53;;;19.88;92.19
45731;BME280;31440;48.584;13.460;2022-07-23T01:58:01;96749.91;;;19.73;94.13
45731;BME280;31440;48.584;13.460;2022-07-23T02:00:28;96752.09;;;19.79;93.89
45731;BME280;31440;48.584;13.460;2022-07-23T02:02:54;96746.66;;;19.59;96.61
45731;BME280;31440;48.584;13.460;2022-07-23T02:05:19;96750.47;;;19.43;98.44
45731;BME280;31440;48.584;13.460;2022-07-23T02:07:45;96732.03;;;19.43;97.03
45731;BME280;31440;48.584;13.460;2022-07-23T02:10:11;96755.84;;;19.31;100.00
45731;BME280;31440;48.584;13.460;2022-07-23T02:12:37;96766.63;;;19.39;100.00
45731;BME280;31440;48.584;13.460;2022-07-23T02:15:03;96763.34;;;19.70;97.89
45731;BME280;31440;48.584;13.460;2022-07-23T02:17:28;96761.91;;;19.89;96.23
45731;BME280;31440;48.584;13.460;2022-07-23T02:19:54;96769.81;;;19.66;96.17
45731;BME280;31440;48.584;13.460;2022-07-23T02:22:21;96775.69;;;19.59;97.61
45731;BME280;31440;48.584;13.460;2022-07-23T02:24:48;96791.63;;;19.68;97.25
45731;BME280;31440;48.584;13.460;2022-07-23T02:27:14;96801.97;;;19.36;99.41
45731;BME280;31440;48.584;13.460;2022-07-23T02:29:39;96816.53;;;19.53;98.97
45731;BME280;31440;48.584;13.460;2022-07-23T02:32:05;96830.31;;;19.57;99.18
45731;BME280;31440;48.584;13.460;2022-07-23T02:34:31;96831.44;;;19.65;96.37
45731;BME280;31440;48.584;13.460;2022-07-23T02:36:56;96839.38;;;19.76;94.72
45731;BME280;31440;48.584;13.460;2022-07-23T02:39:23;96846.66;;;19.62;94.55
45731;BME280;31440;48.584;13.460;2022-07-23T02:41:49;96857.09;;;19.74;93.13
45731;BME280;31440;48.584;13.460;2022-07-23T02:44:15;96872.09;;;19.74;93.19
45731;BME280;31440;48.584;13.460;2022-07-23T02:46:43;96870.81;;;19.08;99.53
45731;BME280;31440;48.584;13.460;2022-07-23T02:49:09;96864.22;;;19.50;96.47
45731;BME280;31440;48.584;13.460;2022-07-23T02:51:34;96879.91;;;19.52;96.49
45731;BME280;31440;48.584;13.460;2022-07-23T02:54:03;96897.34;;;19.30;97.82
45731;BME280;31440;48.584;13.460;2022-07-23T02:56:29;96886.94;;;19.40;98.56
45731;BME280;31440;48.584;13.460;2022-07-23T02:58:56;96893.19;;;19.74;95.89
45731;BME280;31440;48.584;13.460;2022-07-23T03:01:22;96901.75;;;19.54;95.52
45731;BME280;31440;48.584;13.460;2022-07-23T03:03:47;96910.72;;;19.27;98.97
45731;BME280;31440;48.584;13.460;2022-07-23T03:06:13;96938.03;;;19.26;100.00
45731;BME280;31440;48.584;13.460;2022-07-23T03:08:39;96956.72;;;19.10;100.00
45731;BME280;31440;48.584;13.460;2022-07-23T03:11:05;96951.16;;;18.90;100.00
45731;BME280;31440;48.584;13.460;2022-07-23T03:13:37;96935.22;;;19.04;100.00
45731;BME280;31440;48.584;13.460;2022-07-23T03:16:03;96913.91;;;19.20;100.00
45731;BME280;31440;48.584;13.460;2022-07-23T03:18:29;96929.63;;;19.08;100.00
45731;BME280;31440;48.584;13.460;2022-07-23T03:20:55;96932.16;;;19.23;100.00
45731;BME280;31440;48.584;13.460;2022-07-23T03:23:21;96940.66;;;19.50;100.00
45731;BME280;31440;48.584;13.460;2022-07-23T03:25:47;96932.44;;;19.55;100.00
45731;BME280;31440;48.584;13.460;2022-07-23T03:28:16;96925.38;;;19.90;100.00
45731;BME280;31440;48.584;13.460;2022-07-23T03:30:45;96922.44;;;19.71;100.00
45731;BME280;31440;48.584;13.460;2022-07-23T03:33:12;96919.56;;;19.74;100.00
45731;BME280;31440;48.584;13.460;2022-07-23T03:35:38;96932.50;;;19.66;100.00
45731;BME280;31440;48.584;13.460;2022-07-23T03:38:16;96931.47;;;19.56;100.00
45731;BME280;31440;48.584;13.460;2022-07-23T03:40:42;96930.09;;;19.63;100.00
45731;BME280;31440;48.584;13.460;2022-07-23T03:43:08;96936.75;;;19.56;100.00
45731;BME280;31440;48.584;13.460;2022-07-23T03:45:33;96944.63;;;19.44;100.00
45731;BME280;31440;48.584;13.460;2022-07-23T03:48:00;96946.47;;;19.55;100.00
45731;BME280;31440;48.584;13.460;2022-07-23T03:50:25;96944.63;;;19.44;100.00
45731;BME280;31440;48.584;13.460;2022-07-23T03:52:51;96942.09;;;19.67;100.00
45731;BME280;31440;48.584;13.460;2022-07-23T03:55:17;96949.03;;;19.92;100.00
45731;BME280;31440;48.584;13.460;2022-07-23T03:57:43;96953.56;;;19.90;100.00
45731;BME280;31440;48.584;13.460;2022-07-23T04:00:10;96949.63;;;20.19;100.00
45731;BME280;31440;48.584;13.460;2022-07-23T04:02:43;96955.00;;;19.82;100.00
45731;BME280;31440;48.584;13.460;2022-07-23T04:05:11;96950.06;;;20.02;100.00
45731;BME280;31440;48.584;13.460;2022-07-23T04:07:38;96936.88;;;20.13;100.00
45731;BME280;31440;48.584;13.460;2022-07-23T04:10:05;96938.66;;;20.01;100.00
45731;BME280;31440;48.584;13.460;2022-07-23T04:12:31;96932.53;;;20.01;100.00
45731;BME280;31440;48.584;13.460;2022-07-23T04:14:56;96943.38;;;19.85;100.00
45731;BME280;31440;48.584;13.460;2022-07-23T04:17:22;96946.03;;;19.96;100.00
45731;BME280;31440;48.584;13.460;2022-07-23T04:19:47;96946.56;;;19.77;100.00
45731;BME280;31440;48.584;13.460;2022-07-23T04:22:17;96945.94;;;19.98;100.00
45731;BME280;31440;48.584;13.460;2022-07-23T04:24:42;96947.84;;;19.96;100.00
45731;BME280;31440;48.584;13.460;2022-07-23T04:27:09;96936.44;;;20.30;100.00
45731;BME280;31440;48.584;13.460;2022-07-23T04:29:34;96947.28;;;20.61;100.00
45731;BME280;31440;48.584;13.460;2022-07-23T04:32:00;96944.28;;;20.54;100.00
45731;BME280;31440;48.584;13.460;2022-07-23T04:34:26;96948.91;;;20.28;100.00
45731;BME280;31440;48.584;13.460;2022-07-23T04:36:53;96960.06;;;19.97;100.00
45731;BME280;31440;48.584;13.460;2022-07-23T04:39:19;96958.44;;;20.07;100.00
45731;BME280;31440;48.584;13.460;2022-07-23T04:41:45;96949.47;;;19.86;100.00
45731;BME280;31440;48.584;13.460;2022-07-23T04:44:11;96945.75;;;19.88;100.00
45731;BME280;31440;48.584;13.460;2022-07-23T04:46:37;96923.41;;;20.05;100.00
45731;BME280;31440;48.584;13.460;2022-07-23T04:49:02;96930.31;;;19.95;100.00
45731;BME280;31440;48.584;13.460;2022-07-23T04:51:28;96936.91;;;19.89;100.00
45731;BME280;31440;48.584;13.460;2022-07-23T04:53:55;96935.66;;;20.06;100.00
45731;BME280;31440;48.584;13.460;2022-07-23T04:56:21;96937.69;;;19.78;100.00
45731;BME280;31440;48.584;13.460;2022-07-23T04:58:46;96934.94;;;19.80;100.00
45731;BME280;31440;48.584;13.460;2022-07-23T05:01:12;96925.88;;;20.30;100.00
45731;BME280;31440;48.584;13.460;2022-07-23T05:03:38;96917.47;;;20.25;100.00
45731;BME280;31440;48.584;13.460;2022-07-23T05:06:03;96908.59;;;20.26;100.00
45731;BME280;31440;48.584;13.460;2022-07-23T05:08:30;96901.34;;;20.06;100.00
45731;BME280;31440;48.584;13.460;2022-07-23T05:10:57;96896.56;;;19.76;100.00
45731;BME280;31440;48.584;13.460;2022-07-23T05:13:23;96885.41;;;19.72;100.00
45731;BME280;31440;48.584;13.460;2022-07-23T05:15:52;96879.06;;;19.51;100.00
45731;BME280;31440;48.584;13.460;2022-07-23T05:18:18;96861.03;;;19.69;100.00
45731;BME280;31440;48.584;13.460;2022-07-23T05:20:44;96877.28;;;19.52;100.00
45731;BME280;31440;48.584;13.460;2022-07-23T05:23:13;96906.66;;;20.17;100.00
45731;BME280;31440;48.584;13.460;2022-07-23T05:25:39;96903.09;;;20.29;100.00
45731;BME280;31440;48.584;13.460;2022-07-23T05:28:05;96892.19;;;20.45;100.00
45731;BME280;31440;48.584;13.460;2022-07-23T05:30:31;96899.75;;;20.49;100.00
45731;BME280;31440;48.584;13.460;2022-07-23T05:33:00;96898.38;;;20.22;100.00
45731;BME280;31440;48.584;13.460;2022-07-23T05:35:26;96889.03;;;20.29;100.00
45731;BME280;31440;48.584;13.460;2022-07-23T05:38:11;96888.81;;;20.32;100.00
45731;BME280;31440;48.584;13.460;2022-07-23T05:40:37;96892.06;;;20.35;100.00
45731;BME280;31440;48.584;13.460;2022-07-23T05:43:03;96894.09;;;20.76;100.00
45731;BME280;31440;48.584;13.460;2022-07-23T05:45:28;96895.69;;;20.57;100.00
45731;BME280;31440;48.584;13.460;2022-07-23T05:47:54;96914.47;;;20.30;100.00
45731;BME280;31440;48.584;13.460;2022-07-23T05:50:26;96906.81;;;20.49;100.00
45731;BME280;31440;48.584;13.460;2022-07-23T05:52:59;96904.06;;;20.50;100.00
45731;BME280;31440;48.584;13.460;2022-07-23T05:55:27;96910.59;;;20.91;100.00
45731;BME280;31440;48.584;13.460;2022-07-23T05:57:56;96899.59;;;20.40;100.00
45731;BME280;31440;48.584;13.460;2022-07-23T06:00:21;96906.47;;;21.09;100.00
45731;BME280;31440;48.584;13.460;2022-07-23T06:02:47;96900.38;;;21.41;100.00
45731;BME280;31440;48.584;13.460;2022-07-23T06:05:15;96894.97;;;21.53;98.71
45731;BME280;31440;48.584;13.460;2022-07-23T06:07:42;96887.28;;;21.82;96.29
45731;BME280;31440;48.584;13.460;2022-07-23T06:10:08;96874.44;;;21.67;93.49
45731;BME280;31440;48.584;13.460;2022-07-23T06:12:35;96879.16;;;21.95;89.50
45731;BME280;31440;48.584;13.460;2022-07-23T06:15:01;96875.97;;;21.80;93.20
45731;BME280;31440;48.584;13.460;2022-07-23T06:17:27;96886.88;;;21.87;95.12
45731;BME280;31440;48.584;13.460;2022-07-23T06:19:53;96888.56;;;21.88;98.74
45731;BME280;31440;48.584;13.460;2022-07-23T06:22:19;96891.84;;;22.01;90.74
45731;BME280;31440;48.584;13.460;2022-07-23T06:24:45;96893.47;;;22.13;90.04
45731;BME280;31440;48.584;13.460;2022-07-23T06:27:11;96912.75;;;21.63;92.06
45731;BME280;31440;48.584;13.460;2022-07-23T06:29:36;96923.34;;;21.51;91.62
45731;BME280;31440;48.584;13.460;2022-07-23T06:32:02;96921.00;;;21.69;87.92
45731;BME280;31440;48.584;13.460;2022-07-23T06:34:28;96932.53;;;21.68;85.56
45731;BME280;31440;48.584;13.460;2022-07-23T06:36:55;96947.09;;;21.08;89.86
45731;BME280;31440;48.584;13.460;2022-07-23T06:39:20;96932.47;;;21.59;86.13
45731;BME280;31440;48.584;13.460;2022-07-23T06:41:49;96930.31;;;21.84;84.75
45731;BME280;31440;48.584;13.460;2022-07-23T06:44:16;96937.16;;;21.44;87.50
45731;BME280;31440;48.584;13.460;2022-07-23T06:46:42;96927.03;;;21.92;84.77
45731;BME280;31440;48.584;13.460;2022-07-23T06:49:09;96935.88;;;21.81;82.31
45731;BME280;31440;48.584;13.460;2022-07-23T06:51:34;96935.91;;;21.70;83.96
45731;BME280;31440;48.584;13.460;2022-07-23T06:54:01;96932.94;;;22.16;81.44
45731;BME280;31440;48.584;13.460;2022-07-23T06:56:26;96930.41;;;21.94;81.62
45731;BME280;31440;48.584;13.460;2022-07-23T06:58:53;96930.53;;;22.13;79.12
45731;BME280;31440;48.584;13.460;2022-07-23T07:01:19;96923.03;;;22.18;80.49
45731;BME280;31440;48.584;13.460;2022-07-23T07:03:45;96918.84;;;22.57;79.32
45731;BME280;31440;48.584;13.460;2022-07-23T07:06:10;96915.19;;;22.28;83.70
45731;BME280;31440;48.584;13.460;2022-07-23T07:08:36;96930.41;;;22.15;86.72
45731;BME280;31440;48.584;13.460;2022-07-23T07:11:02;96939.31;;;21.93;80.40
45731;BME280;31440;48.584;13.460;2022-07-23T07:13:28;96936.28;;;21.98;77.93
45731;BME280;31440;48.584;13.460;2022-07-23T07:15:53;96935.44;;;22.60;76.19
45731;BME280;31440;48.584;13.460;2022-07-23T07:18:19;96940.28;;;22.54;81.57
45731;BME280;31440;48.584;13.460;2022-07-23T07:20:45;96939.25;;;22.36;91.11
45731;BME280;31440;48.584;13.460;2022-07-23T07:23:10;96951.63;;;22.36;89.23
45731;BME280;31440;48.584;13.460;2022-07-23T07:25:37;96957.91;;;22.35;90.40
45731;BME280;31440;48.584;13.460;2022-07-23T07:28:03;96962.66;;;22.41;91.09
45731;BME280;31440;48.584;13.460;2022-07-23T07:30:28;96960.47;;;22.46;90.38
45731;BME280;31440;48.584;13.460;2022-07-23T07:32:54;96955.56;;;22.41;88.42
45731;BME280;31440;48.584;13.460;2022-07-23T07:35:19;96958.69;;;22.98;88.29
45731;BME280;31440;48.584;13.460;2022-07-23T07:37:45;96949.16;;;22.95;85.76
45731;BME280;31440;48.584;13.460;2022-07-23T07:40:11;96957.13;;;23.25;84.83
45731;BME280;31440;48.584;13.460;2022-07-23T07:42:50;96951.44;;;23.49;79.47
45731;BME280;31440;48.584;13.460;2022-07-23T07:45:17;96957.00;;;23.37;76.02
45731;BME280;31440;48.584;13.460;2022-07-23T07:47:42;96961.06;;;23.50;76.86
45731;BME280;31440;48.584;13.460;2022-07-23T07:50:09;96957.22;;;23.83;76.51
45731;BME280;31440;48.584;13.460;2022-07-23T07:52:35;96953.69;;;23.54;79.54
45731;BME280;31440;48.584;13.460;2022-07-23T07:55:05;96961.63;;;23.54;82.88
45731;BME280;31440;48.584;13.460;2022-07-23T07:57:31;96968.75;;;23.53;85.56
45731;BME280;31440;48.584;13.460;2022-07-23T07:59:57;96972.28;;;23.64;83.10
45731;BME280;31440;48.584;13.460;2022-07-23T08:02:22;96978.75;;;24.28;75.75
45731;BME280;31440;48.584;13.460;2022-07-23T08:04:48;96977.69;;;24.31;75.28
45731;BME280;31440;48.584;13.460;2022-07-23T08:07:14;96974.69;;;24.63;74.02
45731;BME280;31440;48.584;13.460;2022-07-23T08:09:41;96957.78;;;24.35;74.64
45731;BME280;31440;48.584;13.460;2022-07-23T08:12:07;96981.91;;;24.71;71.70
45731;BME280;31440;48.584;13.460;2022-07-23T08:14:32;96974.03;;;24.98;63.65
45731;BME280;31440;48.584;13.460;2022-07-23T08:16:58;96980.47;;;25.33;67.01
45731;BME280;31440;48.584;13.460;2022-07-23T08:19:24;96981.72;;;25.38;60.22
45731;BME280;31440;48.584;13.460;2022-07-23T08:21:49;96984.09;;;26.04;60.38
45731;BME280;31440;48.584;13.460;2022-07-23T08:24:15;96981.56;;;26.56;60.74
45731;BME280;31440;48.584;13.460;2022-07-23T08:26:41;96986.78;;;26.40;55.09
45731;BME280;31440;48.584;13.460;2022-07-23T08:29:06;96986.97;;;25.57;53.70
45731;BME280;31440;48.584;13.460;2022-07-23T08:31:32;96991.06;;;25.15;55.88
45731;BME280;31440;48.584;13.460;2022-07-23T08:33:59;96973.03;;;25.63;56.72
45731;BME280;31440;48.584;13.460;2022-07-23T08:36:24;96992.22;;;25.85;54.79
45731;BME280;31440;48.584;13.460;2022-07-23T08:38:53;97000.53;;;25.99;51.55
45731;BME280;31440;48.584;13.460;2022-07-23T08:41:20;96994.91;;;25.30;49.95
45731;BME280;31440;48.584;13.460;2022-07-23T08:43:46;97001.19;;;25.39;50.36
45731;BME280;31440;48.584;13.460;2022-07-23T08:46:13;97000.84;;;25.42;50.96
45731;BME280;31440;48.584;13.460;2022-07-23T08:48:38;97000.81;;;25.24;50.44
45731;BME280;31440;48.584;13.460;2022-07-23T08:51:05;97002.53;;;25.43;51.03
45731;BME280;31440;48.584;13.460;2022-07-23T08:53:32;97000.25;;;26.03;51.21
45731;BME280;31440;48.584;13.460;2022-07-23T08:56:00;96998.72;;;26.18;50.03
45731;BME280;31440;48.584;13.460;2022-07-23T08:58:30;96995.22;;;26.17;50.98
45731;BME280;31440;48.584;13.460;2022-07-23T09:00:56;96991.34;;;25.76;51.77
45731;BME280;31440;48.584;13.460;2022-07-23T09:03:23;97004.75;;;26.20;49.82
45731;BME280;31440;48.584;13.460;2022-07-23T09:05:50;97006.25;;;26.05;53.10
45731;BME280;31440;48.584;13.460;2022-07-23T09:08:21;96998.03;;;26.51;52.08
45731;BME280;31440;48.584;13.460;2022-07-23T09:15:49;97000.09;;;26.04;49.39
45731;BME280;31440;48.584;13.460;2022-07-23T09:18:16;96991.38;;;25.67;48.94
45731;BME280;31440;48.584;13.460;2022-07-23T09:20:43;96992.25;;;26.38;49.17
45731;BME280;31440;48.584;13.460;2022-07-23T09:23:09;96985.38;;;26.00;50.28
45731;BME280;31440;48.584;13.460;2022-07-23T09:25:34;96986.94;;;26.20;53.05
45731;BME280;31440;48.584;13.460;2022-07-23T09:28:00;96984.66;;;26.08;50.15
45731;BME280;31440;48.584;13.460;2022-07-23T09:30:30;96983.44;;;26.20;50.15
45731;BME280;31440;48.584;13.460;2022-07-23T09:33:14;96987.34;;;25.80;49.98
45731;BME280;31440;48.584;13.460;2022-07-23T09:35:48;96980.34;;;26.15;48.84
45731;BME280;31440;48.584;13.460;2022-07-23T09:38:15;96976.94;;;26.05;46.56
45731;BME280;31440;48.584;13.460;2022-07-23T09:40:41;96960.81;;;26.42;46.23
45731;BME280;31440;48.584;13.460;2022-07-23T09:43:06;96977.50;;;26.26;47.18
45731;BME280;31440;48.584;13.460;2022-07-23T09:45:32;96976.38;;;26.54;48.05
45731;BME280;31440;48.584;13.460;2022-07-23T09:48:15;96970.00;;;26.91;46.90
45731;BME280;31440;48.584;13.460;2022-07-23T09:50:41;96963.16;;;27.64;46.70
45731;BME280;31440;48.584;13.460;2022-07-23T09:53:07;96980.13;;;27.47;44.56
45731;BME280;31440;48.584;13.460;2022-07-23T09:55:34;96970.47;;;28.21;42.89
45731;BME280;31440;48.584;13.460;2022-07-23T09:58:07;96964.53;;;27.85;44.28
45731;BME280;31440;48.584;13.460;2022-07-23T10:00:39;96972.94;;;27.98;42.99
45731;BME280;31440;48.584;13.460;2022-07-23T10:03:06;96964.78;;;28.08;43.45
45731;BME280;31440;48.584;13.460;2022-07-23T10:05:51;96965.63;;;28.65;43.40
45731;BME280;31440;48.584;13.460;2022-07-23T10:08:28;96959.56;;;28.95;43.03
45731;BME280;31440;48.584;13.460;2022-07-23T10:11:09;96962.34;;;29.18;42.85
45731;BME280;31440;48.584;13.460;2022-07-23T10:13:54;96963.00;;;29.20;43.04
45731;BME280;31440;48.584;13.460;2022-07-23T10:16:41;96954.69;;;27.85;45.88
45731;BME280;31440;48.584;13.460;2022-07-23T10:19:08;96958.69;;;27.31;44.07
45731;BME280;31440;48.584;13.460;2022-07-23T10:21:38;96952.66;;;27.29;43.92
45731;BME280;31440;48.584;13.460;2022-07-23T10:35:43;96967.50;;;26.72;47.17
45731;BME280;31440;48.584;13.460;2022-07-23T10:38:25;96967.13;;;26.66;45.58
45731;BME280;31440;48.584;13.460;2022-07-23T10:40:54;96960.38;;;26.98;48.36
45731;BME280;31440;48.584;13.460;2022-07-23T10:43:21;96971.56;;;27.35;46.08
45731;BME280;31440;48.584;13.460;2022-07-23T10:45:48;96967.31;;;27.51;46.33
45731;BME280;31440;48.584;13.460;2022-07-23T10:50:45;96962.84;;;27.76;44.47
45731;BME280;31440;48.584;13.460;2022-07-23T10:56:15;96971.13;;;27.48;44.51
45731;BME280;31440;48.584;13.460;2022-07-23T10:58:49;96970.31;;;27.22;45.33
45731;BME280;31440;48.584;13.460;2022-07-23T11:01:38;96965.22;;;27.95;43.48
45731;BME280;31440;48.584;13.460;2022-07-23T11:04:04;96959.78;;;26.86;44.33
45731;BME280;31440;48.584;13.460;2022-07-23T11:09:29;96964.94;;;27.98;43.32
45731;BME280;31440;48.584;13.460;2022-07-23T11:15:10;96969.63;;;28.77;42.55
45731;BME280;31440;48.584;13.460;2022-07-23T11:20:22;96966.72;;;27.89;43.86
45731;BME280;31440;48.584;13.460;2022-07-23T11:22:51;96964.03;;;27.73;42.69
45731;BME280;31440;48.584;13.460;2022-07-23T11:27:49;96965.31;;;28.27;43.88
45731;BME280;31440;48.584;13.460;2022-07-23T11:35:39;96965.44;;;28.34;42.84
45731;BME280;31440;48.584;13.460;2022-07-23T11:38:14;96963.41;;;28.85;42.40
45731;BME280;31440;48.584;13.460;2022-07-23T11:40:41;96958.25;;;29.38;40.78
45731;BME280;31440;48.584;13.460;2022-07-23T11:43:09;96952.81;;;29.55;43.61
45731;BME280;31440;48.584;13.460;2022-07-23T11:48:07;96951.28;;;29.91;42.01
45731;BME280;31440;48.584;13.460;2022-07-23T11:50:34;96943.78;;;29.08;41.31
45731;BME280;31440;48.584;13.460;2022-07-23T11:53:00;96944.75;;;29.32;41.23
45731;BME280;31440;48.584;13.460;2022-07-23T11:55:26;96938.53;;;29.70;39.80
45731;BME280;31440;48.584;13.460;2022-07-23T11:57:54;96928.97;;;28.82;41.43
45731;BME280;31440;48.584;13.460;2022-07-23T12:00:23;96944.72;;;28.36;42.73
45731;BME280;31440;48.584;13.460;2022-07-23T12:02:51;96926.66;;;28.46;41.84
45731;BME280;31440;48.584;13.460;2022-07-23T12:05:22;96938.41;;;28.21;43.53
45731;BME280;31440;48.584;13.460;2022-07-23T12:07:50;96930.75;;;29.53;42.51
45731;BME280;31440;48.584;13.460;2022-07-23T12:15:12;96936.44;;;31.45;38.09
45731;BME280;31440;48.584;13.460;2022-07-23T12:17:40;96929.13;;;31.25;37.80
45731;BME280;31440;48.584;13.460;2022-07-23T12:20:08;96932.72;;;31.17;38.47
45731;BME280;31440;48.584;13.460;2022-07-23T12:22:40;96926.94;;;31.64;38.84
45731;BME280;31440;48.584;13.460;2022-07-23T12:25:15;96929.56;;;30.32;38.10
45731;BME280;31440;48.584;13.460;2022-07-23T12:27:42;96934.06;;;30.69;38.57
45731;BME280;31440;48.584;13.460;2022-07-23T12:30:31;96933.94;;;31.44;37.10
45731;BME280;31440;48.584;13.460;2022-07-23T12:32:58;96927.16;;;32.69;37.50
45731;BME280;31440;48.584;13.460;2022-07-23T12:35:32;96926.34;;;32.26;36.49
45731;BME280;31440;48.584;13.460;2022-07-23T12:38:06;96922.47;;;32.78;36.36
45731;BME280;31440;48.584;13.460;2022-07-23T12:40:36;96919.75;;;31.86;37.49
45731;BME280;31440;48.584;13.460;2022-07-23T12:43:05;96919.19;;;31.55;38.01
45731;BME280;31440;48.584;13.460;2022-07-23T12:45:50;96921.25;;;32.59;37.77
45731;BME280;31440;48.584;13.460;2022-07-23T12:48:22;96912.78;;;32.13;36.80
45731;BME280;31440;48.584;13.460;2022-07-23T12:53:39;96902.72;;;32.71;36.67
45731;BME280;31440;48.584;13.460;2022-07-23T12:56:20;96903.22;;;32.53;34.85
45731;BME280;31440;48.584;13.460;2022-07-23T12:58:58;96909.38;;;33.03;34.73
45731;BME280;31440;48.584;13.460;2022-07-23T13:01:28;96904.63;;;33.53;35.02
45731;BME280;31440;48.584;13.460;2022-07-23T13:04:07;96899.78;;;33.82;34.02
45731;BME280;31440;48.584;13.460;2022-07-23T13:09:05;96892.38;;;34.70;33.42
45731;BME280;31440;48.584;13.460;2022-07-23T13:11:32;96893.63;;;34.55;32.51
45731;BME280;31440;48.584;13.460;2022-07-23T13:13:57;96892.28;;;32.55;32.04
45731;BME280;31440;48.584;13.460;2022-07-23T13:16:23;96898.78;;;32.39;33.30
45731;BME280;31440;48.584;13.460;2022-07-23T13:18:49;96895.47;;;33.40;33.21
45731;BME280;31440;48.584;13.460;2022-07-23T13:21:15;96892.44;;;33.70;31.98
45731;BME280;31440;48.584;13.460;2022-07-23T13:23:41;96884.69;;;32.37;31.98
45731;BME280;31440;48.584;13.460;2022-07-23T13:26:07;96897.09;;;34.02;34.70
45731;BME280;31440;48.584;13.460;2022-07-23T13:28:33;96890.75;;;33.56;32.83
45731;BME280;31440;48.584;13.460;2022-07-23T13:30:58;96888.34;;;32.29;34.21
45731;BME280;31440;48.584;13.460;2022-07-23T13:33:24;96887.84;;;32.26;36.50
45731;BME280;31440;48.584;13.460;2022-07-23T13:35:51;96883.44;;;32.67;34.01
45731;BME280;31440;48.584;13.460;2022-07-23T13:38:18;96882.91;;;32.78;34.99
45731;BME280;31440;48.584;13.460;2022-07-23T13:40:47;96882.97;;;32.85;34.71